Time;durP1;ratioP1;P1;durP2;ratioP2;P2;SDS_P1;SDS_P2;PMS_P1;PMS_P2;Temp;Humidity;BMP_temperature;BMP_pressure;BME280_temperature;BME280_humidity;BME280_pressure;Samples;Min_cycle;Max_cycle;Signal;HPM_P1;HPM_P2
2024/02/25 00:00:58;;;;;;;1.30;1.23;;;3.20;99.90;;;;;;5031310;28;20026;-76
2024/02/25 00:03:23;;;;;;;6.15;1.52;;;3.10;99.90;;;;;;5029827;28;20064;-76
2024/02/25 00:05:49;;;;;;;5.20;1.00;;;3.00;99.90;;;;;;5031319;28;20021;-76
2024/02/25 00:08:14;;;;;;;5.75;0.98;;;3.00;99.90;;;;;;5032535;28;20044;-76
2024/02/25 00:10:40;;;;;;;2.03;0.80;;;2.90;99.90;;;;;;5031689;28;20515;-75
2024/02/25 00:13:06;;;;;;;1.15;0.80;;;2.90;99.90;;;;;;5037444;28;20029;-76
2024/02/25 00:15:32;;;;;;;4.05;0.90;;;2.90;99.90;;;;;;5035038;28;20038;-76
2024/02/25 00:17:58;;;;;;;5.72;1.02;;;2.80;99.90;;;;;;5034938;28;20116;-76
2024/02/25 00:20:23;;;;;;;3.08;0.75;;;2.70;99.90;;;;;;5031492;28;20072;-76
2024/02/25 00:22:50;;;;;;;1.13;0.77;;;2.70;99.90;;;;;;5032179;28;20021;-76
2024/02/25 00:25:16;;;;;;;3.58;1.02;;;2.60;99.90;;;;;;5032922;28;20777;-76
2024/02/25 00:27:42;;;;;;;1.92;0.80;;;2.60;99.90;;;;;;5032760;28;20032;-76
2024/02/25 00:30:08;;;;;;;0.90;0.90;;;2.60;99.90;;;;;;5032307;28;20688;-76
2024/02/25 00:32:34;;;;;;;4.93;1.25;;;2.60;99.90;;;;;;5032512;28;20686;-76
2024/02/25 00:35:00;;;;;;;2.00;1.27;;;2.60;99.90;;;;;;5032271;28;20113;-76
2024/02/25 00:37:26;;;;;;;4.82;1.40;;;2.60;99.90;;;;;;5031292;28;20424;-76
2024/02/25 00:39:52;;;;;;;3.60;1.50;;;2.50;99.90;;;;;;5030995;28;20056;-76
2024/02/25 00:42:17;;;;;;;4.82;0.98;;;2.50;99.90;;;;;;5031155;28;20029;-76
2024/02/25 00:44:48;;;;;;;2.95;1.25;;;2.50;99.90;;;;;;5031398;28;20026;-76
2024/02/25 00:47:14;;;;;;;4.47;1.70;;;2.50;99.90;;;;;;5031112;28;20021;-76
2024/02/25 00:49:41;;;;;;;4.88;2.95;;;2.40;99.90;;;;;;5031908;28;20508;-76
2024/02/25 00:52:07;;;;;;;5.13;2.40;;;2.30;99.90;;;;;;5032091;28;20025;-76
2024/02/25 00:54:33;;;;;;;8.40;2.10;;;2.30;99.90;;;;;;5032285;28;20036;-76
2024/02/25 00:56:58;;;;;;;2.72;1.70;;;2.30;99.90;;;;;;5032382;28;20024;-76
2024/02/25 00:59:24;;;;;;;4.15;2.28;;;2.30;99.90;;;;;;5030385;28;20088;-75
2024/02/25 01:01:50;;;;;;;3.50;2.03;;;2.20;99.90;;;;;;5032088;28;20472;-75
2024/02/25 01:04:18;;;;;;;2.97;1.90;;;2.20;99.90;;;;;;5032223;28;20652;-76
2024/02/25 01:06:44;;;;;;;1.80;1.25;;;2.20;99.90;;;;;;5032114;28;20021;-76
2024/02/25 01:09:10;;;;;;;1.95;1.45;;;2.20;99.90;;;;;;5030772;28;20087;-75
2024/02/25 01:11:36;;;;;;;3.35;1.35;;;2.20;99.90;;;;;;5030620;28;20021;-76
2024/02/25 01:14:02;;;;;;;2.72;1.55;;;2.10;99.90;;;;;;5030850;28;20029;-76
2024/02/25 01:16:28;;;;;;;7.47;1.73;;;2.10;99.90;;;;;;5031568;28;20026;-76
2024/02/25 01:18:54;;;;;;;3.67;1.73;;;2.20;99.90;;;;;;5030538;28;20550;-76
2024/02/25 01:21:19;;;;;;;9.23;3.42;;;2.20;99.90;;;;;;5031223;28;20045;-76
2024/02/25 01:23:45;;;;;;;8.32;2.20;;;2.10;99.90;;;;;;5034803;28;20030;-76
2024/02/25 01:26:11;;;;;;;5.28;1.90;;;2.10;99.90;;;;;;5035777;28;20033;-75
2024/02/25 01:28:36;;;;;;;4.15;1.65;;;2.10;99.90;;;;;;5035956;28;20484;-75
2024/02/25 01:31:02;;;;;;;1.45;1.08;;;2.10;99.90;;;;;;5035707;28;20052;-75
2024/02/25 01:33:28;;;;;;;2.33;1.42;;;2.00;99.90;;;;;;5035936;28;20030;-75
2024/02/25 01:35:53;;;;;;;11.00;1.58;;;1.90;99.90;;;;;;5035275;28;20028;-76
2024/02/25 01:38:19;;;;;;;3.22;1.27;;;1.90;99.90;;;;;;5035786;28;20022;-76
2024/02/25 01:40:45;;;;;;;3.90;1.08;;;1.80;99.90;;;;;;5034245;28;20033;-76
2024/02/25 01:43:15;;;;;;;1.38;0.90;;;1.80;99.90;;;;;;5034369;28;20060;-76
2024/02/25 01:45:40;;;;;;;1.75;1.05;;;1.70;99.90;;;;;;5035791;28;20071;-76
2024/02/25 01:48:08;;;;;;;3.17;1.15;;;1.70;99.90;;;;;;5034460;28;20033;-75
2024/02/25 01:50:35;;;;;;;4.28;1.23;;;1.70;99.90;;;;;;5035073;28;20033;-76
2024/02/25 01:53:01;;;;;;;1.80;1.33;;;1.60;99.90;;;;;;5035488;28;20022;-76
2024/02/25 01:55:34;;;;;;;2.05;1.27;;;1.60;99.90;;;;;;5034299;28;20116;-75
2024/02/25 01:58:02;;;;;;;4.95;1.38;;;1.70;99.90;;;;;;5035750;28;20040;-75
2024/02/25 02:00:29;;;;;;;2.15;1.33;;;1.70;99.90;;;;;;5033869;28;20056;-75
2024/02/25 02:02:55;;;;;;;2.88;1.27;;;1.70;99.90;;;;;;5035356;28;20021;-76
2024/02/25 02:05:20;;;;;;;3.70;1.48;;;1.80;99.90;;;;;;5034197;28;20117;-76
2024/02/25 02:07:47;;;;;;;2.22;1.40;;;1.70;99.90;;;;;;5034134;28;20025;-75
2024/02/25 02:10:13;;;;;;;1.67;1.17;;;1.70;99.90;;;;;;5035253;28;20025;-76
2024/02/25 02:12:47;;;;;;;2.13;1.40;;;1.70;99.90;;;;;;5035406;28;20129;-75
2024/02/25 02:15:13;;;;;;;3.72;1.65;;;1.70;99.90;;;;;;5034090;28;20030;-75
2024/02/25 02:17:41;;;;;;;2.70;1.55;;;1.70;99.90;;;;;;5034210;28;20022;-76
2024/02/25 02:20:20;;;;;;;1.52;1.27;;;1.70;99.90;;;;;;5035021;28;20030;-76
2024/02/25 02:22:46;;;;;;;6.22;2.25;;;1.70;99.90;;;;;;5033737;28;20175;-75
2024/02/25 02:25:16;;;;;;;4.07;1.67;;;1.70;99.90;;;;;;5035194;28;20029;-75
2024/02/25 02:27:43;;;;;;;4.78;1.75;;;1.70;99.90;;;;;;5035742;28;20434;-75
2024/02/25 02:30:10;;;;;;;4.50;2.28;;;1.60;99.90;;;;;;5039264;28;20022;-75
2024/02/25 02:32:36;;;;;;;2.40;1.80;;;1.60;99.90;;;;;;5036768;28;20480;-75
2024/02/25 02:35:06;;;;;;;2.35;1.48;;;1.70;99.90;;;;;;5037975;28;20026;-76
2024/02/25 02:37:32;;;;;;;2.53;1.75;;;1.60;99.90;;;;;;5036643;28;20025;-76
2024/02/25 02:39:58;;;;;;;2.88;1.73;;;1.50;99.90;;;;;;5037003;28;20029;-76
2024/02/25 02:42:24;;;;;;;2.85;1.85;;;1.60;99.90;;;;;;5037256;28;20033;-75
2024/02/25 02:44:50;;;;;;;9.82;2.17;;;1.50;99.90;;;;;;5034162;28;20025;-75
2024/02/25 02:47:20;;;;;;;5.00;2.53;;;1.50;99.90;;;;;;5034826;28;20029;-76
2024/02/25 02:49:47;;;;;;;8.32;2.55;;;1.50;99.90;;;;;;5033336;28;20025;-75
2024/02/25 02:52:14;;;;;;;2.75;2.15;;;1.40;99.90;;;;;;5034713;28;20033;-75
2024/02/25 02:54:40;;;;;;;2.53;2.15;;;1.50;99.90;;;;;;5034915;28;20008;-76
2024/02/25 02:57:06;;;;;;;3.97;2.03;;;1.40;99.90;;;;;;5033714;28;20112;-76
2024/02/25 02:59:34;;;;;;;3.97;1.80;;;1.40;99.90;;;;;;5034466;28;20072;-76
2024/02/25 03:02:00;;;;;;;4.65;2.08;;;1.50;99.90;;;;;;5032288;28;20392;-75
2024/02/25 03:04:27;;;;;;;5.70;1.88;;;1.40;99.90;;;;;;5034834;28;20060;-76
2024/02/25 03:06:54;;;;;;;7.20;2.20;;;1.40;99.90;;;;;;5034843;28;20052;-75
2024/02/25 03:09:23;;;;;;;2.45;1.90;;;1.40;99.90;;;;;;5032905;28;20025;-75
2024/02/25 03:11:49;;;;;;;4.38;2.17;;;1.40;99.90;;;;;;5032897;28;20049;-76
2024/02/25 03:14:16;;;;;;;3.38;2.60;;;1.40;99.90;;;;;;5033056;28;20459;-76
2024/02/25 03:16:41;;;;;;;3.30;3.00;;;1.40;99.90;;;;;;5032550;28;20095;-76
2024/02/25 03:19:07;;;;;;;3.80;2.38;;;1.40;99.90;;;;;;5032892;28;20480;-76
2024/02/25 03:21:33;;;;;;;4.90;2.10;;;1.40;99.90;;;;;;5032733;28;20025;-76
2024/02/25 03:23:59;;;;;;;4.13;1.92;;;1.30;99.90;;;;;;5032517;28;20029;-75
2024/02/25 03:26:25;;;;;;;1.98;1.83;;;1.30;99.90;;;;;;5032593;28;20368;-75
2024/02/25 03:28:50;;;;;;;3.28;1.67;;;1.30;99.90;;;;;;5032608;28;20040;-75
2024/02/25 03:31:16;;;;;;;2.70;1.90;;;1.20;99.90;;;;;;5033587;28;20033;-75
2024/02/25 03:33:42;;;;;;;2.47;1.77;;;1.50;99.90;;;;;;5032676;28;20024;-76
2024/02/25 03:36:08;;;;;;;5.82;2.55;;;1.20;99.90;;;;;;5033848;28;20017;-75
2024/02/25 03:38:33;;;;;;;6.97;2.22;;;1.10;99.90;;;;;;5033103;28;20096;-75
2024/02/25 03:40:59;;;;;;;4.03;1.55;;;1.20;99.90;;;;;;5036056;28;20040;-76
2024/02/25 03:43:25;;;;;;;4.32;1.85;;;1.20;99.90;;;;;;5048063;28;20117;-75
2024/02/25 03:45:50;;;;;;;5.18;2.78;;;1.10;99.90;;;;;;5045932;28;20086;-76
2024/02/25 03:48:16;;;;;;;2.80;1.90;;;1.30;99.90;;;;;;5042543;28;20112;-75
2024/02/25 03:50:42;;;;;;;4.18;2.20;;;1.00;99.90;;;;;;5032160;28;20026;-76
2024/02/25 03:53:08;;;;;;;2.30;1.92;;;1.00;99.90;;;;;;5034128;28;20030;-75
2024/02/25 03:55:34;;;;;;;6.63;1.70;;;1.10;99.90;;;;;;5032085;28;20172;-75
2024/02/25 03:58:00;;;;;;;4.60;1.83;;;1.00;99.90;;;;;;5030999;28;20487;-75
2024/02/25 04:00:26;;;;;;;4.68;2.05;;;1.00;99.90;;;;;;5032581;28;20025;-75
2024/02/25 04:02:52;;;;;;;7.10;2.15;;;1.10;99.90;;;;;;5030135;28;20051;-75
2024/02/25 04:05:18;;;;;;;5.53;2.78;;;1.10;99.90;;;;;;5031742;28;20120;-75
2024/02/25 04:07:45;;;;;;;2.55;1.50;;;1.10;99.90;;;;;;5033092;28;20021;-76
2024/02/25 04:10:11;;;;;;;4.57;1.95;;;1.10;99.90;;;;;;5033037;28;20026;-76
2024/02/25 04:12:38;;;;;;;5.20;2.08;;;1.00;99.90;;;;;;5031413;28;20029;-75
2024/02/25 04:15:04;;;;;;;5.72;2.00;;;1.10;99.90;;;;;;5030996;28;20036;-75
2024/02/25 04:17:30;;;;;;;3.33;2.75;;;1.00;99.90;;;;;;5031404;28;20028;-76
2024/02/25 04:19:56;;;;;;;5.07;2.13;;;1.00;99.90;;;;;;5032886;28;20030;-75
2024/02/25 04:22:22;;;;;;;4.75;2.28;;;1.10;99.90;;;;;;5031488;28;20029;-76
2024/02/25 04:24:48;;;;;;;2.03;1.55;;;1.50;99.90;;;;;;5032891;28;20029;-75
2024/02/25 04:27:14;;;;;;;3.53;1.90;;;1.20;99.90;;;;;;5031639;28;20021;-75
2024/02/25 04:29:43;;;;;;;2.80;1.95;;;1.20;99.90;;;;;;5031452;28;20492;-75
2024/02/25 04:32:09;;;;;;;2.97;2.03;;;1.10;99.90;;;;;;5031375;28;20495;-76
2024/02/25 04:34:35;;;;;;;2.92;1.60;;;1.00;99.90;;;;;;5032780;28;20618;-75
2024/02/25 04:37:02;;;;;;;2.63;1.95;;;1.50;99.90;;;;;;5031455;28;20108;-75
2024/02/25 04:39:28;;;;;;;2.00;1.52;;;1.10;99.90;;;;;;5032555;28;20079;-76
2024/02/25 04:41:54;;;;;;;4.22;1.50;;;1.30;99.90;;;;;;5032544;28;20551;-75
2024/02/25 04:44:19;;;;;;;3.03;2.15;;;1.20;99.90;;;;;;5032400;28;20504;-75
2024/02/25 04:46:45;;;;;;;3.17;2.15;;;1.10;99.90;;;;;;5031228;28;20064;-75
2024/02/25 04:49:11;;;;;;;3.03;1.77;;;1.00;99.90;;;;;;5032330;28;20096;-76
2024/02/25 04:51:37;;;;;;;3.97;1.98;;;1.00;99.90;;;;;;5031612;28;20390;-76
2024/02/25 04:54:03;;;;;;;10.32;2.13;;;1.00;99.90;;;;;;5031275;28;20025;-75
2024/02/25 04:56:29;;;;;;;3.83;1.90;;;0.90;99.90;;;;;;5033294;28;20021;-76
2024/02/25 04:58:55;;;;;;;3.92;1.40;;;0.90;99.90;;;;;;5039113;28;20097;-75
2024/02/25 05:01:21;;;;;;;4.05;1.70;;;0.90;99.90;;;;;;5038809;28;20029;-75
2024/02/25 05:03:46;;;;;;;3.33;1.92;;;0.90;99.90;;;;;;5037820;28;20579;-76
2024/02/25 05:06:15;;;;;;;1.65;1.25;;;0.90;99.90;;;;;;5039055;28;20095;-76
2024/02/25 05:08:41;;;;;;;5.15;1.83;;;0.90;99.90;;;;;;5039042;28;20025;-75
2024/02/25 05:11:06;;;;;;;3.70;1.40;;;0.90;99.90;;;;;;5038569;28;20515;-75
2024/02/25 05:13:32;;;;;;;3.53;2.20;;;0.90;99.90;;;;;;5039048;28;20021;-75
2024/02/25 05:15:58;;;;;;;4.50;2.47;;;0.90;99.90;;;;;;5038561;28;20029;-75
2024/02/25 05:18:27;;;;;;;5.35;2.40;;;0.90;99.90;;;;;;5038891;28;20483;-76
2024/02/25 05:20:52;;;;;;;2.17;1.65;;;0.80;99.90;;;;;;5038650;28;20565;-75
2024/02/25 05:23:18;;;;;;;4.75;2.30;;;0.90;99.90;;;;;;5037695;28;20044;-75
2024/02/25 05:25:44;;;;;;;2.72;1.90;;;0.90;99.90;;;;;;5038903;28;20112;-76
2024/02/25 05:28:09;;;;;;;5.65;2.72;;;0.80;99.90;;;;;;5038040;28;20057;-76
2024/02/25 05:30:35;;;;;;;2.47;1.83;;;0.90;99.90;;;;;;5038497;28;20108;-75
2024/02/25 05:33:01;;;;;;;10.18;2.17;;;0.90;99.90;;;;;;5038835;28;20425;-75
2024/02/25 05:35:26;;;;;;;2.50;1.80;;;0.90;99.90;;;;;;5038857;28;20028;-75
2024/02/25 05:37:52;;;;;;;2.80;1.55;;;0.80;99.90;;;;;;5037405;28;20061;-76
2024/02/25 05:40:18;;;;;;;3.97;1.67;;;0.80;99.90;;;;;;5038554;28;20028;-76
2024/02/25 05:42:44;;;;;;;5.25;2.60;;;0.90;99.90;;;;;;5037512;28;20396;-75
2024/02/25 05:45:11;;;;;;;2.58;2.35;;;0.90;99.90;;;;;;5038609;28;20048;-75
2024/02/25 05:47:37;;;;;;;9.10;3.15;;;0.90;99.90;;;;;;5037398;28;20133;-75
2024/02/25 05:50:03;;;;;;;5.53;3.08;;;1.20;99.90;;;;;;5031127;28;20112;-76
2024/02/25 05:52:28;;;;;;;3.83;3.13;;;0.90;99.90;;;;;;5037349;28;20068;-75
2024/02/25 05:54:56;;;;;;;9.55;3.40;;;1.40;99.90;;;;;;5035847;28;20022;-75
2024/02/25 05:57:21;;;;;;;5.68;3.25;;;2.30;99.90;;;;;;5037262;28;20025;-75
2024/02/25 05:59:47;;;;;;;5.25;2.35;;;2.10;99.90;;;;;;5038355;28;20101;-75
2024/02/25 06:02:13;;;;;;;4.55;2.40;;;1.90;99.90;;;;;;5036957;28;20113;-75
2024/02/25 06:04:39;;;;;;;5.30;2.95;;;1.70;99.90;;;;;;5038874;28;20037;-75
2024/02/25 06:07:05;;;;;;;5.60;2.08;;;1.50;99.90;;;;;;5038423;28;20105;-75
2024/02/25 06:09:30;;;;;;;3.85;2.22;;;1.90;99.90;;;;;;5034361;28;20511;-76
2024/02/25 06:11:56;;;;;;;6.13;2.80;;;1.70;99.90;;;;;;5035182;28;20056;-75
2024/02/25 06:14:22;;;;;;;3.20;2.55;;;1.50;99.90;;;;;;5032581;28;20034;-75
2024/02/25 06:16:47;;;;;;;3.60;2.60;;;1.60;99.90;;;;;;5033817;28;20029;-75
2024/02/25 06:19:13;;;;;;;4.88;2.17;;;2.00;99.90;;;;;;5033846;28;20025;-75
2024/02/25 06:21:44;;;;;;;8.55;2.83;;;1.40;99.90;;;;;;5035132;28;20558;-75
2024/02/25 06:24:10;;;;;;;10.20;4.80;;;1.40;99.90;;;;;;5034906;28;20423;-75
2024/02/25 06:26:36;;;;;;;7.28;3.78;;;1.40;99.90;;;;;;5034513;28;20030;-75
2024/02/25 06:29:02;;;;;;;13.48;6.45;;;1.50;99.90;;;;;;5033584;28;20392;-75
2024/02/25 06:31:32;;;;;;;12.25;4.80;;;1.40;99.90;;;;;;5033202;28;20033;-75
2024/02/25 06:33:58;;;;;;;4.97;2.58;;;1.40;99.90;;;;;;5032570;28;20415;-75
2024/02/25 06:36:24;;;;;;;4.35;2.60;;;1.40;99.90;;;;;;5031452;28;20077;-74
2024/02/25 06:38:49;;;;;;;4.05;3.00;;;1.50;99.90;;;;;;5033387;28;20121;-74
2024/02/25 06:41:22;;;;;;;2.53;1.92;;;1.50;99.90;;;;;;5033698;28;20049;-74
2024/02/25 06:43:48;;;;;;;5.03;2.70;;;1.60;99.90;;;;;;5032841;28;20142;-74
2024/02/25 06:46:13;;;;;;;2.15;2.00;;;1.70;99.90;;;;;;5035629;28;20512;-74
2024/02/25 06:48:39;;;;;;;5.40;2.78;;;1.70;99.90;;;;;;5032424;28;20130;-74
2024/02/25 06:51:05;;;;;;;6.13;2.92;;;1.80;99.90;;;;;;5032189;28;20403;-75
2024/02/25 06:53:34;;;;;;;8.23;3.83;;;1.90;99.90;;;;;;5032792;28;20025;-74
2024/02/25 06:56:00;;;;;;;8.40;4.03;;;2.00;99.90;;;;;;5032449;28;20488;-75
2024/02/25 06:58:26;;;;;;;6.85;3.22;;;2.00;99.90;;;;;;5032479;28;20510;-75
2024/02/25 07:00:52;;;;;;;7.82;3.72;;;2.10;99.90;;;;;;5032220;28;20029;-75
2024/02/25 07:03:18;;;;;;;6.22;3.53;;;2.30;99.90;;;;;;5033282;28;20558;-75
2024/02/25 07:05:44;;;;;;;4.95;3.13;;;2.70;99.90;;;;;;5033080;28;20037;-75
2024/02/25 07:08:10;;;;;;;9.52;2.58;;;2.50;99.90;;;;;;5034230;28;20021;-75
2024/02/25 07:10:35;;;;;;;6.43;3.35;;;2.70;99.90;;;;;;5035537;28;20026;-76
2024/02/25 07:13:01;;;;;;;5.63;3.78;;;2.80;99.90;;;;;;5037167;28;20041;-76
2024/02/25 07:15:27;;;;;;;4.00;2.88;;;2.90;99.90;;;;;;5034334;28;20026;-76
2024/02/25 07:17:53;;;;;;;3.70;2.10;;;3.00;99.90;;;;;;5034790;28;20029;-76
2024/02/25 07:20:20;;;;;;;3.75;1.83;;;3.20;99.90;;;;;;5032748;28;20376;-75
2024/02/25 07:22:46;;;;;;;5.25;2.75;;;3.30;99.90;;;;;;5034020;28;20030;-76
2024/02/25 07:25:12;;;;;;;2.65;1.95;;;3.40;99.90;;;;;;5032321;28;20030;-75
2024/02/25 07:27:37;;;;;;;8.30;3.25;;;3.60;99.90;;;;;;5027709;28;20032;-75
2024/02/25 07:30:03;;;;;;;3.13;1.95;;;3.70;99.90;;;;;;5033209;28;20029;-76
2024/02/25 07:32:29;;;;;;;4.80;2.05;;;3.70;99.90;;;;;;5031921;28;20045;-76
2024/02/25 07:34:54;;;;;;;13.27;4.00;;;3.80;99.90;;;;;;5028692;28;20039;-75
2024/02/25 07:37:21;;;;;;;6.38;3.38;;;3.90;99.90;;;;;;5029771;28;20033;-75
2024/02/25 07:39:47;;;;;;;9.23;3.05;;;3.90;99.90;;;;;;5033015;28;20025;-75
2024/02/25 07:42:13;;;;;;;8.82;3.28;;;4.00;99.90;;;;;;5028218;28;20025;-75
2024/02/25 07:44:39;;;;;;;5.32;3.08;;;4.10;99.90;;;;;;5027867;28;20041;-76
2024/02/25 07:47:04;;;;;;;5.80;3.55;;;4.20;99.90;;;;;;5031583;28;20017;-75
2024/02/25 07:49:30;;;;;;;7.65;4.30;;;4.30;99.90;;;;;;5027780;28;20039;-75
2024/02/25 07:51:56;;;;;;;33.70;16.42;;;4.40;99.90;;;;;;5032951;28;20025;-75
2024/02/25 07:54:22;;;;;;;12.68;6.82;;;4.50;99.90;;;;;;5032794;28;20029;-77
2024/02/25 07:56:47;;;;;;;9.85;4.53;;;4.60;99.90;;;;;;5031368;28;20029;-76
2024/02/25 07:59:13;;;;;;;20.90;10.77;;;4.50;99.90;;;;;;5028981;28;20044;-75
2024/02/25 08:01:39;;;;;;;11.05;5.38;;;4.60;99.90;;;;;;5031280;28;20105;-75
2024/02/25 08:04:04;;;;;;;30.38;14.07;;;4.70;99.90;;;;;;5027565;28;20155;-75
2024/02/25 08:06:31;;;;;;;12.35;7.40;;;4.80;99.90;;;;;;5032675;28;20017;-75
2024/02/25 08:08:57;;;;;;;5.30;3.50;;;4.90;99.90;;;;;;5024031;28;20029;-75
2024/02/25 08:11:23;;;;;;;4.03;2.78;;;4.90;99.90;;;;;;5022362;28;20041;-75
2024/02/25 08:13:49;;;;;;;9.02;3.00;;;4.90;99.90;;;;;;5021980;28;20030;-75
2024/02/25 08:16:15;;;;;;;5.20;2.20;;;4.90;99.90;;;;;;5028095;28;20037;-76
2024/02/25 08:18:47;;;;;;;7.60;2.85;;;5.00;99.90;;;;;;5027588;28;20022;-75
2024/02/25 08:21:13;;;;;;;6.57;3.08;;;5.00;99.90;;;;;;5030648;28;20029;-74
2024/02/25 08:23:43;;;;;;;5.75;3.28;;;5.00;99.90;;;;;;5032497;28;20026;-75
2024/02/25 08:26:09;;;;;;;5.90;3.38;;;5.10;99.90;;;;;;5032419;28;20022;-76
2024/02/25 08:28:37;;;;;;;4.72;2.95;;;5.10;99.90;;;;;;5032412;28;20035;-76
2024/02/25 08:31:03;;;;;;;7.30;3.60;;;5.10;99.90;;;;;;5031134;28;20026;-76
2024/02/25 08:33:28;;;;;;;5.25;3.75;;;5.20;99.90;;;;;;5032048;28;20097;-76
2024/02/25 08:35:54;;;;;;;5.70;3.88;;;5.30;99.90;;;;;;5032118;28;20013;-75
2024/02/25 08:38:20;;;;;;;9.02;3.90;;;5.30;99.90;;;;;;5032196;28;20093;-75
2024/02/25 08:40:45;;;;;;;3.70;2.80;;;5.30;99.90;;;;;;5032197;28;20021;-76
2024/02/25 08:43:11;;;;;;;4.70;2.97;;;5.40;99.90;;;;;;5032137;28;20029;-75
2024/02/25 08:45:37;;;;;;;7.55;3.40;;;5.60;99.90;;;;;;5032313;28;20087;-76
2024/02/25 08:48:03;;;;;;;7.45;3.60;;;5.70;99.90;;;;;;5032325;28;20091;-76
2024/02/25 08:50:28;;;;;;;6.45;3.67;;;5.80;99.90;;;;;;5025785;28;20029;-76
2024/02/25 08:52:54;;;;;;;7.15;3.00;;;5.90;99.90;;;;;;5032269;28;20022;-76
2024/02/25 08:55:20;;;;;;;5.35;3.20;;;6.00;99.90;;;;;;5027609;28;20018;-75
2024/02/25 08:57:46;;;;;;;7.05;2.92;;;6.10;99.90;;;;;;5023093;28;20032;-76
2024/02/25 09:00:12;;;;;;;5.88;3.42;;;6.20;99.90;;;;;;5032058;28;20022;-76
2024/02/25 09:02:38;;;;;;;4.93;4.18;;;6.40;99.90;;;;;;5031817;28;20025;-75
2024/02/25 09:05:05;;;;;;;4.78;2.30;;;6.60;99.90;;;;;;5030000;28;20125;-75
2024/02/25 09:07:31;;;;;;;7.82;3.47;;;6.70;99.90;;;;;;5031917;28;20036;-75
2024/02/25 09:09:57;;;;;;;5.20;2.95;;;6.80;99.90;;;;;;5031310;28;20418;-75
2024/02/25 09:12:23;;;;;;;3.53;2.55;;;6.90;99.90;;;;;;5024080;28;20034;-75
2024/02/25 09:14:49;;;;;;;5.47;2.55;;;7.00;99.90;;;;;;5031973;28;20024;-75
2024/02/25 09:17:14;;;;;;;10.18;4.20;;;7.10;99.90;;;;;;5031527;28;20075;-75
2024/02/25 09:19:40;;;;;;;3.72;2.63;;;7.30;99.90;;;;;;5019101;28;20024;-75
2024/02/25 09:22:06;;;;;;;5.28;3.03;;;7.50;99.90;;;;;;5030601;28;20045;-76
2024/02/25 09:24:31;;;;;;;3.97;2.38;;;7.60;99.90;;;;;;5031649;28;20087;-76
2024/02/25 09:26:57;;;;;;;6.05;2.03;;;7.80;99.90;;;;;;5031927;28;20029;-76
2024/02/25 09:29:23;;;;;;;10.57;5.32;;;7.90;99.90;;;;;;5031867;28;20480;-75
2024/02/25 09:31:48;;;;;;;23.75;10.55;;;8.00;99.90;;;;;;5031815;28;20021;-76
2024/02/25 09:34:14;;;;;;;42.58;17.63;;;8.20;99.90;;;;;;5031661;28;20032;-76
2024/02/25 09:36:44;;;;;;;12.85;7.22;;;8.40;99.90;;;;;;5024722;28;20021;-74
2024/02/25 09:39:10;;;;;;;5.07;3.10;;;8.50;99.90;;;;;;5018832;28;20017;-76
2024/02/25 09:41:39;;;;;;;6.55;3.17;;;9.10;99.90;;;;;;5021746;28;20026;-76
2024/02/25 09:44:30;;;;;;;4.57;2.88;;;9.70;99.90;;;;;;5034139;28;20014;-76
2024/02/25 09:46:56;;;;;;;3.30;2.03;;;9.70;99.90;;;;;;5015362;28;20034;-75
2024/02/25 09:51:49;;;;;;;3.72;2.95;;;9.60;99.90;;;;;;5012122;28;20046;-74
2024/02/25 09:54:16;;;;;;;3.70;2.28;;;9.70;99.90;;;;;;5017374;28;20404;-74
2024/02/25 09:56:48;;;;;;;2.17;1.63;;;9.90;99.90;;;;;;5014167;28;20026;-74
2024/02/25 09:59:15;;;;;;;1.15;0.88;;;10.00;99.90;;;;;;5015277;28;20025;-74
2024/02/25 10:01:44;;;;;;;5.05;0.93;;;10.10;99.90;;;;;;5015034;28;20108;-74
2024/02/25 10:04:10;;;;;;;3.10;1.25;;;10.20;99.90;;;;;;5014077;28;20033;-76
2024/02/25 10:06:39;;;;;;;1.13;1.02;;;10.20;99.90;;;;;;5014778;28;20054;-74
2024/02/25 10:09:08;;;;;;;3.65;1.20;;;10.30;99.50;;;;;;5017665;28;20049;-74
2024/02/25 10:11:34;;;;;;;7.20;1.45;;;10.40;98.70;;;;;;5015671;28;20057;-76
2024/02/25 10:13:59;;;;;;;4.90;1.60;;;10.40;97.70;;;;;;5014513;28;20435;-75
2024/02/25 10:16:25;;;;;;;2.63;1.40;;;10.70;99.30;;;;;;5018005;28;20422;-75
2024/02/25 10:18:52;;;;;;;3.75;1.67;;;10.80;97.10;;;;;;5022759;28;20537;-74
2024/02/25 10:21:18;;;;;;;2.63;1.90;;;10.90;96.50;;;;;;5029395;28;20025;-75
2024/02/25 10:23:44;;;;;;;2.45;1.30;;;10.80;96.20;;;;;;5034731;28;20017;-75
2024/02/25 10:26:17;;;;;;;8.35;3.15;;;10.80;96.30;;;;;;5034486;28;20030;-75
2024/02/25 10:28:43;;;;;;;7.28;4.80;;;11.00;96.30;;;;;;5033206;28;20025;-74
2024/02/25 10:31:11;;;;;;;7.47;3.08;;;10.90;95.20;;;;;;5034444;28;20028;-72
2024/02/25 10:33:38;;;;;;;2.83;1.98;;;10.80;95.40;;;;;;5034873;28;20080;-73
2024/02/25 10:36:08;;;;;;;1.83;1.67;;;10.90;95.00;;;;;;5034352;28;20032;-74
2024/02/25 10:38:39;;;;;;;3.13;0.77;;;11.00;95.30;;;;;;5034159;28;20026;-75
2024/02/25 10:41:06;;;;;;;8.50;3.85;;;11.20;95.00;;;;;;5032785;28;20376;-75
2024/02/25 10:43:34;;;;;;;8.93;5.32;;;11.30;94.40;;;;;;5033274;28;20026;-75
2024/02/25 10:46:05;;;;;;;5.20;4.70;;;11.30;94.00;;;;;;5019832;28;20046;-74
2024/02/25 10:48:31;;;;;;;2.13;1.63;;;11.40;94.20;;;;;;5031247;28;20040;-75
2024/02/25 10:50:59;;;;;;;4.20;2.28;;;11.60;93.40;;;;;;5025209;28;20033;-74
2024/02/25 10:53:28;;;;;;;4.07;1.83;;;11.60;92.50;;;;;;5023910;28;20034;-75
2024/02/25 10:55:58;;;;;;;3.63;2.45;;;11.60;92.70;;;;;;5023703;28;20017;-74
2024/02/25 10:58:25;;;;;;;8.48;3.50;;;11.70;92.40;;;;;;5028716;28;20076;-74
2024/02/25 11:00:53;;;;;;;3.20;2.17;;;11.60;92.30;;;;;;5017948;28;20037;-75
2024/02/25 11:03:20;;;;;;;9.48;4.65;;;11.50;92.50;;;;;;5022825;28;20395;-75
2024/02/25 11:05:46;;;;;;;3.70;1.90;;;11.60;93.00;;;;;;5027117;28;20022;-74
2024/02/25 11:08:11;;;;;;;3.78;2.03;;;11.70;92.90;;;;;;5025516;28;20021;-75
2024/02/25 11:10:37;;;;;;;10.43;2.67;;;11.60;93.10;;;;;;5025278;28;20022;-75
2024/02/25 11:13:03;;;;;;;6.40;1.95;;;11.60;93.10;;;;;;5033691;28;20484;-75
2024/02/25 11:15:32;;;;;;;4.82;1.50;;;11.60;93.30;;;;;;5024735;28;20100;-75
2024/02/25 11:18:00;;;;;;;11.07;2.08;;;11.70;92.80;;;;;;5014894;28;20023;-74
2024/02/25 11:20:28;;;;;;;4.60;2.92;;;11.70;92.50;;;;;;5016974;28;20033;-76
2024/02/25 11:22:55;;;;;;;3.90;2.63;;;11.80;93.10;;;;;;5019999;28;20032;-74
2024/02/25 11:25:26;;;;;;;9.73;3.40;;;11.80;91.80;;;;;;5016850;28;20033;-76
2024/02/25 11:28:20;;;;;;;2.78;1.48;;;11.90;91.90;;;;;;5025109;28;20079;-74
2024/02/25 11:30:48;;;;;;;2.58;2.00;;;12.00;92.00;;;;;;5018878;28;20033;-74
2024/02/25 11:33:26;;;;;;;3.28;2.00;;;12.00;92.00;;;;;;5018311;28;20018;-73
2024/02/25 11:35:54;;;;;;;3.75;1.73;;;12.10;92.00;;;;;;5029996;28;20014;-73
2024/02/25 11:38:28;;;;;;;4.80;4.13;;;12.20;91.50;;;;;;5022112;28;20014;-75
2024/02/25 11:40:56;;;;;;;3.30;2.60;;;12.30;91.40;;;;;;5019837;28;20034;-75
2024/02/25 11:43:22;;;;;;;4.78;1.10;;;12.40;90.20;;;;;;5025372;28;20503;-75
2024/02/25 11:45:48;;;;;;;2.03;0.90;;;12.30;88.50;;;;;;5026118;28;20029;-75
2024/02/25 11:48:14;;;;;;;3.88;1.92;;;12.30;89.80;;;;;;5031347;28;20032;-75
2024/02/25 11:50:40;;;;;;;1.10;0.98;;;12.30;89.70;;;;;;5020506;28;20512;-75
2024/02/25 11:53:06;;;;;;;1.08;0.88;;;12.30;90.30;;;;;;5013424;28;20503;-75
2024/02/25 11:55:32;;;;;;;3.50;1.40;;;12.40;90.10;;;;;;5013107;28;20029;-75
2024/02/25 11:57:59;;;;;;;3.78;1.77;;;12.40;88.80;;;;;;5013089;28;20022;-76
2024/02/25 12:00:26;;;;;;;3.17;1.67;;;12.50;89.30;;;;;;5011907;28;20108;-75
2024/02/25 12:02:51;;;;;;;4.53;1.85;;;12.60;87.80;;;;;;5023389;28;20099;-76
2024/02/25 12:05:18;;;;;;;2.45;1.02;;;12.60;85.90;;;;;;5018537;28;20022;-76
2024/02/25 12:08:04;;;;;;;5.38;1.95;;;12.60;87.80;;;;;;5023629;28;20021;-76
2024/02/25 12:10:30;;;;;;;4.25;1.25;;;12.60;88.70;;;;;;5009119;28;20198;-75
2024/02/25 12:12:56;;;;;;;2.58;1.55;;;12.90;86.80;;;;;;5003496;28;20076;-75
2024/02/25 12:15:28;;;;;;;1.83;1.30;;;12.90;87.90;;;;;;5004893;28;20022;-75
2024/02/25 12:17:56;;;;;;;3.50;1.40;;;13.00;86.20;;;;;;5020840;28;20018;-75
2024/02/25 12:20:22;;;;;;;5.65;0.90;;;12.90;81.10;;;;;;5029742;28;20492;-76
2024/02/25 12:22:51;;;;;;;2.92;1.67;;;13.00;80.70;;;;;;5023550;28;20021;-74
2024/02/25 12:25:18;;;;;;;2.63;1.27;;;13.10;78.90;;;;;;5029635;28;20025;-74
2024/02/25 12:27:45;;;;;;;5.90;1.27;;;13.00;77.70;;;;;;5027126;28;20025;-74
2024/02/25 12:30:12;;;;;;;3.58;1.95;;;13.20;76.70;;;;;;5020430;28;20026;-75
2024/02/25 12:32:38;;;;;;;4.55;1.80;;;13.30;78.80;;;;;;5019131;28;20024;-74
2024/02/25 12:35:05;;;;;;;4.68;1.75;;;13.50;79.20;;;;;;5012578;28;20026;-75
2024/02/25 12:37:31;;;;;;;3.58;1.00;;;13.60;78.20;;;;;;5011018;28;20095;-75
2024/02/25 12:40:00;;;;;;;3.80;0.80;;;13.50;76.70;;;;;;5019194;28;20018;-74
2024/02/25 12:42:28;;;;;;;4.53;0.90;;;13.60;74.70;;;;;;5021962;28;20428;-75
2024/02/25 12:44:54;;;;;;;8.25;4.43;;;13.50;72.70;;;;;;5032240;28;20078;-75
2024/02/25 12:47:20;;;;;;;6.18;2.78;;;13.40;73.90;;;;;;5016697;28;20483;-75
2024/02/25 12:49:48;;;;;;;1.30;0.85;;;13.50;74.20;;;;;;5011445;28;20033;-75
2024/02/25 12:52:14;;;;;;;0.63;0.57;;;13.60;71.70;;;;;;5020729;28;20021;-75